createdAt,value
2018-12-25T00:02:50.113Z,97949.11
2018-12-25T00:07:53.663Z,97983.24
2018-12-25T00:12:57.277Z,97997.40
2018-12-25T00:18:01.077Z,98042.14
2018-12-25T00:23:05.010Z,98074.30
2018-12-25T00:28:08.565Z,97990.75
2018-12-25T00:33:12.237Z,98072.31
2018-12-25T00:38:15.887Z,98052.42
2018-12-25T00:43:19.456Z,98066.95
2018-12-25T00:48:24.589Z,98090.44
2018-12-25T00:53:28.424Z,98069.44
2018-12-25T00:58:32.035Z,98059.19
2018-12-25T01:03:35.554Z,98076.73
2018-12-25T01:08:39.318Z,98086.78
2018-12-25T01:13:45.359Z,98115.84
2018-12-25T01:18:49.156Z,98089.64
2018-12-25T01:23:52.716Z,98051.54
2018-12-25T01:28:56.252Z,98069.84
2018-12-25T01:33:59.878Z,98080.20
2018-12-25T01:39:06.204Z,98098.42
2018-12-25T01:44:09.671Z,98113.50
2018-12-25T01:49:13.345Z,98122.05
2018-12-25T01:54:16.875Z,98148.25
2018-12-25T01:59:20.388Z,98126.17
2018-12-25T02:04:24.008Z,98135.22
2018-12-25T02:09:27.719Z,98121.23
2018-12-25T02:14:31.300Z,98112.67
2018-12-25T02:19:40.204Z,98145.95
2018-12-25T02:24:41.956Z,98140.92
2018-12-25T02:29:45.384Z,98119.03
2018-12-25T02:34:48.942Z,98133.03
2018-12-25T02:39:52.494Z,98117.19
2018-12-25T02:44:55.843Z,98158.07
2018-12-25T02:49:59.633Z,98141.20
2018-12-25T02:55:03.065Z,98150.23
2018-12-25T03:00:07.278Z,98154.42
2018-12-25T03:05:10.889Z,98164.44
2018-12-25T03:10:15.832Z,98171.00
2018-12-25T03:15:19.326Z,98182.00
2018-12-25T03:20:22.892Z,98227.79
2018-12-25T03:25:26.578Z,98157.41
2018-12-25T03:30:30.041Z,98155.55
2018-12-25T03:35:33.706Z,98153.19
2018-12-25T03:40:37.311Z,98160.52
2018-12-25T03:45:40.864Z,98142.44
2018-12-25T03:50:44.596Z,98197.08
2018-12-25T03:55:48.171Z,98204.52
2018-12-25T04:00:51.768Z,98143.84
2018-12-25T04:05:55.182Z,98196.82
2018-12-25T04:10:58.785Z,98264.97
2018-12-25T04:16:02.317Z,98264.08
2018-12-25T04:21:06.112Z,98229.78
2018-12-25T04:26:09.734Z,98278.19
2018-12-25T04:31:13.535Z,98266.66
2018-12-25T04:36:17.202Z,98311.44
2018-12-25T04:41:20.879Z,98361.48
2018-12-25T04:46:24.466Z,98296.44
2018-12-25T04:51:28.607Z,98349.17
2018-12-25T04:56:32.089Z,98367.94
2018-12-25T05:01:35.628Z,98361.63
2018-12-25T05:06:39.438Z,98362.30
2018-12-25T05:11:42.875Z,98342.10
2018-12-25T05:16:47.491Z,98395.34
2018-12-25T05:21:51.399Z,98371.70
2018-12-25T05:26:54.954Z,98405.17
2018-12-25T05:31:58.738Z,98457.44
2018-12-25T05:37:02.475Z,98429.58
2018-12-25T05:42:06.198Z,98402.55
2018-12-25T05:47:09.584Z,98437.86
2018-12-25T05:52:13.663Z,98445.77
2018-12-25T05:57:17.319Z,98463.67
2018-12-25T06:02:20.761Z,98446.84
2018-12-25T06:07:24.382Z,98461.05
2018-12-25T06:12:27.932Z,98446.41
2018-12-25T06:17:31.638Z,98502.50
2018-12-25T06:22:35.379Z,98472.28
2018-12-25T06:27:39.035Z,98512.51
2018-12-25T06:32:43.047Z,98485.67
2018-12-25T06:37:46.736Z,98505.09
2018-12-25T06:42:50.457Z,98539.30
2018-12-25T06:47:54.051Z,98516.53
2018-12-25T06:52:57.810Z,98541.12
2018-12-25T06:58:01.580Z,98532.29
2018-12-25T07:03:05.242Z,98547.34
2018-12-25T07:08:08.959Z,98558.12
2018-12-25T07:13:12.831Z,98551.35
2018-12-25T07:18:19.446Z,98575.14
2018-12-25T07:23:23.032Z,98569.66
2018-12-25T07:28:26.390Z,98580.29
2018-12-25T07:33:30.089Z,98583.95
2018-12-25T07:38:33.628Z,98610.89
2018-12-25T07:43:37.064Z,98583.77
2018-12-25T07:48:40.761Z,98627.78
2018-12-25T07:53:44.478Z,98677.25
2018-12-25T07:58:48.189Z,98635.17
2018-12-25T08:03:51.748Z,98637.40
2018-12-25T08:08:55.424Z,98666.05
2018-12-25T08:13:58.773Z,98649.43
2018-12-25T08:19:02.294Z,98653.18
2018-12-25T08:24:06.648Z,98627.58
2018-12-25T08:29:10.307Z,98648.27
2018-12-25T08:34:13.826Z,98652.08
2018-12-25T08:39:17.760Z,98639.54
2018-12-25T08:44:21.174Z,98647.15
2018-12-25T08:49:24.600Z,98635.22
2018-12-25T08:54:28.566Z,98641.77
2018-12-25T08:59:32.191Z,98633.99
2018-12-25T09:04:35.709Z,98631.04
2018-12-25T09:09:39.447Z,98631.36
2018-12-25T09:14:43.116Z,98635.81
2018-12-25T09:19:46.627Z,98647.28
2018-12-25T09:24:50.212Z,98638.02
2018-12-25T09:29:53.834Z,98662.91
2018-12-25T09:34:57.228Z,98629.66
2018-12-25T09:40:00.785Z,98648.38
2018-12-25T09:45:05.352Z,98649.23
2018-12-25T09:50:08.830Z,98641.67
2018-12-25T09:55:12.888Z,98632.34
2018-12-25T10:00:16.480Z,98638.41
2018-12-25T10:05:20.018Z,98661.23
2018-12-25T10:10:23.466Z,98651.39
2018-12-25T10:15:27.061Z,98641.77
2018-12-25T10:20:30.865Z,98651.50
2018-12-25T10:25:34.883Z,98635.09
2018-12-25T10:30:38.377Z,98630.67
2018-12-25T10:35:42.120Z,98625.28
2018-12-25T10:40:45.885Z,98628.09
2018-12-25T10:45:49.501Z,98626.45
2018-12-25T10:50:53.114Z,98625.47
2018-12-25T10:55:56.980Z,98623.41
2018-12-25T11:01:11.619Z,98630.75
2018-12-25T11:06:15.846Z,98624.14
2018-12-25T11:11:19.287Z,98615.74
2018-12-25T11:16:23.071Z,98611.07
2018-12-25T11:21:26.882Z,98617.42
2018-12-25T11:26:30.483Z,98611.36
2018-12-25T11:31:34.255Z,98606.72
2018-12-25T11:36:38.835Z,98596.29
2018-12-25T11:41:42.464Z,98612.50
2018-12-25T11:46:46.032Z,98595.80
2018-12-25T11:51:49.639Z,98606.37
2018-12-25T11:56:53.214Z,98596.52
2018-12-25T12:01:56.960Z,98603.73
2018-12-25T12:07:00.531Z,98596.77
2018-12-25T12:12:04.145Z,98595.84
2018-12-25T12:17:08.052Z,98605.84
2018-12-25T12:22:11.634Z,98609.66
2018-12-25T12:27:15.165Z,98619.00
2018-12-25T12:32:18.760Z,98636.91
2018-12-25T12:37:22.465Z,98645.06
2018-12-25T12:42:26.323Z,98629.89
2018-12-25T12:47:31.440Z,98624.03
2018-12-25T12:52:36.438Z,98643.56
2018-12-25T12:57:40.401Z,98635.72
2018-12-25T13:02:43.921Z,98629.02
2018-12-25T13:07:47.738Z,98634.87
2018-12-25T13:12:52.703Z,98647.58
2018-12-25T13:17:56.355Z,98651.16
2018-12-25T13:23:01.446Z,98666.42
2018-12-25T13:28:04.984Z,98662.21
2018-12-25T13:33:09.989Z,98654.28
2018-12-25T13:38:13.647Z,98648.95
2018-12-25T13:43:17.275Z,98664.56
2018-12-25T13:48:20.973Z,98665.42
2018-12-25T13:53:24.760Z,98673.44
2018-12-25T13:58:30.059Z,98682.70
2018-12-25T14:03:35.091Z,98668.50
2018-12-25T14:08:38.748Z,98671.79
2018-12-25T14:13:43.490Z,98675.88
2018-12-25T14:18:47.274Z,98668.39
2018-12-25T14:23:51.036Z,98679.72
2018-12-25T14:28:56.586Z,98701.45
2018-12-25T14:33:59.996Z,98697.83
2018-12-25T14:39:05.675Z,98694.70
2018-12-25T14:44:09.549Z,98689.86
2018-12-25T14:49:13.106Z,98709.03
2018-12-25T14:54:16.684Z,98692.73
2018-12-25T14:59:20.267Z,98701.91
2018-12-25T15:04:23.822Z,98707.95
2018-12-25T15:09:27.399Z,98715.38
2018-12-25T15:14:32.426Z,98716.03
2018-12-25T15:19:36.066Z,98707.52
2018-12-25T15:24:39.884Z,98715.98
2018-12-25T15:29:43.425Z,98724.55
2018-12-25T15:34:48.151Z,98724.38
2018-12-25T15:39:51.483Z,98729.72
2018-12-25T15:44:56.284Z,98738.48
2018-12-25T15:50:00.007Z,98731.47
2018-12-25T15:55:03.853Z,98745.38
2018-12-25T16:00:12.475Z,98764.42
2018-12-25T16:05:15.861Z,98758.98
2018-12-25T16:10:19.779Z,98745.61
2018-12-25T16:15:23.272Z,98786.27
2018-12-25T16:20:27.364Z,98740.94
2018-12-25T16:25:35.275Z,98764.68
2018-12-25T16:30:39.813Z,98762.43
2018-12-25T16:35:43.492Z,98741.64
2018-12-25T16:40:47.126Z,98738.78
2018-12-25T16:45:50.703Z,98750.94
2018-12-25T16:50:54.592Z,98746.73
2018-12-25T16:55:58.121Z,98728.12
2018-12-25T17:01:03.311Z,98753.10
2018-12-25T17:06:07.184Z,98741.84
2018-12-25T17:11:10.606Z,98756.05
2018-12-25T17:16:15.021Z,98761.98
2018-12-25T17:21:18.907Z,98751.90
2018-12-25T17:26:22.461Z,98741.31
2018-12-25T17:31:26.118Z,98770.30
2018-12-25T17:36:29.712Z,98772.35
2018-12-25T17:41:33.173Z,98783.28
2018-12-25T17:46:38.353Z,98832.64
2018-12-25T17:51:43.303Z,98795.53
2018-12-25T17:56:46.749Z,98791.92
2018-12-25T18:01:50.496Z,98783.64
2018-12-25T18:06:53.952Z,98789.67
2018-12-25T18:11:57.562Z,98794.31
2018-12-25T18:17:00.996Z,98765.85
2018-12-25T18:22:04.524Z,98775.03
2018-12-25T18:27:08.087Z,98774.79
2018-12-25T18:32:13.217Z,98832.08
2018-12-25T18:37:17.335Z,98788.09
2018-12-25T18:42:23.293Z,98783.64
2018-12-25T18:47:26.170Z,98764.13
2018-12-25T18:52:29.850Z,98793.41
2018-12-25T18:57:33.401Z,98771.52
2018-12-25T19:02:37.391Z,98788.42
2018-12-25T19:07:43.674Z,98811.31
2018-12-25T19:12:49.899Z,98821.84
2018-12-25T19:17:56.201Z,98780.70
2018-12-25T19:22:59.579Z,98793.17
2018-12-25T19:28:03.016Z,98834.42
2018-12-25T19:33:06.713Z,98798.14
2018-12-25T19:38:10.109Z,98816.06
2018-12-25T19:43:13.527Z,98807.64
2018-12-25T19:48:16.919Z,98840.06
2018-12-25T19:53:20.268Z,98845.05
2018-12-25T19:58:23.671Z,98842.64
2018-12-25T20:03:47.539Z,98898.88
2018-12-25T20:10:06.144Z,98881.43
2018-12-25T20:15:48.603Z,98903.62
2018-12-25T20:21:32.137Z,98924.38
2018-12-25T20:27:08.956Z,98884.67
2018-12-25T20:32:50.438Z,98888.53
2018-12-25T20:38:32.290Z,98892.41
2018-12-25T20:44:20.945Z,98883.40
2018-12-25T20:50:07.576Z,98892.34
2018-12-25T20:56:03.881Z,98940.95
2018-12-25T21:01:39.851Z,98945.04
2018-12-25T21:07:22.591Z,98956.22
2018-12-25T21:13:04.816Z,98943.75
2018-12-25T21:19:02.073Z,98940.14
2018-12-25T21:24:41.961Z,98946.03
2018-12-25T21:29:45.635Z,98969.67
2018-12-25T21:34:56.654Z,98982.27
2018-12-25T21:40:00.373Z,98963.74
2018-12-25T21:45:11.870Z,98948.66
2018-12-25T21:50:15.857Z,98966.62
2018-12-25T21:55:19.475Z,98943.55
2018-12-25T22:00:25.713Z,98933.66
2018-12-25T22:05:29.810Z,98930.70
2018-12-25T22:10:33.449Z,98939.08
2018-12-25T22:15:36.890Z,98911.89
2018-12-25T22:20:40.458Z,98926.19
2018-12-25T22:25:44.466Z,98975.34
2018-12-25T22:30:47.975Z,98958.88
2018-12-25T22:35:52.310Z,98960.77
2018-12-25T22:40:55.906Z,98952.61
2018-12-25T22:46:06.891Z,98971.63
2018-12-25T22:51:10.798Z,98985.90
2018-12-25T22:56:14.509Z,98980.91
2018-12-25T23:01:18.572Z,98974.13
2018-12-25T23:06:23.040Z,99033.91
2018-12-25T23:11:26.281Z,99016.47
2018-12-25T23:16:29.852Z,98991.36
2018-12-25T23:21:33.532Z,98964.81
2018-12-25T23:26:37.186Z,98985.08
2018-12-25T23:31:40.490Z,99024.94
2018-12-25T23:36:45.464Z,98986.66
2018-12-25T23:41:50.296Z,98988.77
2018-12-25T23:46:54.009Z,99053.53
2018-12-25T23:51:57.598Z,99017.66
2018-12-25T23:57:01.007Z,98974.59
